createdAt,value
2022-11-23T00:01:20.865Z,3.60
2022-11-23T00:03:49.528Z,3.95
2022-11-23T00:06:17.236Z,3.42
2022-11-23T00:08:44.319Z,2.20
2022-11-23T00:11:11.703Z,4.88
2022-11-23T00:13:40.630Z,5.40
2022-11-23T00:16:14.883Z,5.10
2022-11-23T00:18:41.736Z,4.00
2022-11-23T00:21:14.328Z,5.95
2022-11-23T00:23:41.352Z,10.30
2022-11-23T00:26:08.732Z,6.57
2022-11-23T00:28:38.884Z,7.40
2022-11-23T00:31:10.051Z,7.00
2022-11-23T00:33:37.312Z,6.28
2022-11-23T00:36:07.402Z,5.70
2022-11-23T00:38:34.465Z,6.07
2022-11-23T00:41:04.019Z,5.97
2022-11-23T00:43:31.084Z,6.75
2022-11-23T00:46:16.325Z,6.80
2022-11-23T00:48:48.586Z,6.78
2022-11-23T00:51:17.878Z,6.80
2022-11-23T00:53:44.838Z,6.22
2022-11-23T00:56:11.973Z,2.80
2022-11-23T00:58:38.884Z,5.60
2022-11-23T01:01:14.665Z,4.88
2022-11-23T01:03:44.576Z,12.73
2022-11-23T01:06:17.095Z,5.93
2022-11-23T01:08:51.548Z,4.25
2022-11-23T01:11:19.436Z,4.07
2022-11-23T01:13:46.589Z,4.15
2022-11-23T01:16:22.398Z,4.10
2022-11-23T01:19:01.384Z,2.75
2022-11-23T01:21:29.611Z,2.75
2022-11-23T01:23:56.585Z,3.47
2022-11-23T01:26:23.609Z,2.15
2022-11-23T01:28:51.131Z,2.15
2022-11-23T01:31:23.400Z,2.17
2022-11-23T01:33:58.628Z,1.80
2022-11-23T01:36:31.194Z,2.03
2022-11-23T01:38:59.111Z,1.70
2022-11-23T01:41:32.073Z,1.45
2022-11-23T01:43:59.539Z,2.15
2022-11-23T01:46:26.319Z,1.90
2022-11-23T01:51:37.682Z,1.88
2022-11-23T01:54:14.942Z,1.75
2022-11-23T01:56:46.212Z,1.42
2022-11-23T01:59:17.307Z,2.25
2022-11-23T02:01:44.424Z,2.40
2022-11-23T02:04:23.610Z,1.70
2022-11-23T02:06:50.772Z,1.88
2022-11-23T02:09:21.149Z,2.13
2022-11-23T02:11:47.866Z,1.88
2022-11-23T02:14:17.848Z,1.95
2022-11-23T02:16:48.840Z,3.35
2022-11-23T02:19:40.169Z,3.13
2022-11-23T02:22:14.405Z,2.83
2022-11-23T02:24:49.183Z,3.97
2022-11-23T02:27:16.870Z,5.40
2022-11-23T02:29:43.749Z,3.20
2022-11-23T02:32:10.457Z,2.38
2022-11-23T02:34:37.132Z,3.15
2022-11-23T02:37:04.888Z,3.65
2022-11-23T02:39:45.784Z,3.00
2022-11-23T02:42:12.738Z,2.83
2022-11-23T02:45:04.912Z,2.67
2022-11-23T02:47:31.643Z,2.10
2022-11-23T02:50:00.941Z,3.20
2022-11-23T02:52:27.647Z,2.38
2022-11-23T02:54:56.816Z,2.67
2022-11-23T02:57:23.660Z,3.50
2022-11-23T02:59:50.403Z,2.55
2022-11-23T03:02:17.329Z,2.45
2022-11-23T03:04:44.045Z,5.38
2022-11-23T03:07:10.857Z,3.45
2022-11-23T03:09:38.640Z,3.90
2022-11-23T03:12:06.232Z,3.47
2022-11-23T03:14:33.050Z,4.18
2022-11-23T03:17:01.075Z,2.85
2022-11-23T03:19:32.687Z,3.30
2022-11-23T03:21:59.726Z,3.33
2022-11-23T03:24:30.305Z,2.67
2022-11-23T03:26:57.208Z,2.88
2022-11-23T03:29:26.478Z,3.58
2022-11-23T03:31:54.958Z,2.65
2022-11-23T03:34:22.320Z,3.10
2022-11-23T03:36:50.474Z,2.30
2022-11-23T03:39:17.268Z,2.47
2022-11-23T03:42:15.981Z,2.75
2022-11-23T03:44:42.713Z,3.22
2022-11-23T03:47:10.107Z,3.97
2022-11-23T03:49:37.152Z,2.45
2022-11-23T03:52:04.557Z,3.72
2022-11-23T03:54:31.338Z,2.33
2022-11-23T03:56:58.139Z,2.30
2022-11-23T03:59:25.273Z,2.40
2022-11-23T04:01:52.893Z,2.80
2022-11-23T04:04:25.325Z,1.80
2022-11-23T04:07:04.924Z,2.53
2022-11-23T04:09:35.482Z,2.63
2022-11-23T04:12:05.284Z,3.20
2022-11-23T04:14:33.009Z,3.05
2022-11-23T04:17:02.132Z,3.75
2022-11-23T04:19:30.282Z,4.35
2022-11-23T04:21:57.870Z,4.40
2022-11-23T04:24:25.541Z,3.50
2022-11-23T04:26:54.951Z,3.40
2022-11-23T04:29:21.743Z,4.47
2022-11-23T04:31:52.793Z,3.85
2022-11-23T04:36:50.771Z,5.57
2022-11-23T04:39:20.352Z,4.72
2022-11-23T04:42:07.071Z,4.45
2022-11-23T04:44:34.159Z,4.18
2022-11-23T04:47:04.365Z,4.72
2022-11-23T04:49:34.188Z,4.57
2022-11-23T04:52:01.131Z,5.03
2022-11-23T04:54:34.159Z,4.38
2022-11-23T04:57:03.573Z,5.22
2022-11-23T04:59:30.615Z,4.60
2022-11-23T05:01:59.247Z,5.22
2022-11-23T05:04:46.397Z,4.85
2022-11-23T05:07:15.440Z,4.55
2022-11-23T05:09:45.431Z,5.30
2022-11-23T05:12:15.446Z,4.97
2022-11-23T05:14:43.227Z,5.25
2022-11-23T05:17:11.612Z,5.70
2022-11-23T05:19:40.502Z,5.80
2022-11-23T05:22:07.844Z,5.30
2022-11-23T05:24:36.633Z,5.45
2022-11-23T05:27:08.612Z,5.05
2022-11-23T05:29:35.695Z,5.82
2022-11-23T05:32:04.581Z,5.63
2022-11-23T05:36:58.348Z,2.60
2022-11-23T05:39:25.348Z,3.75
2022-11-23T05:41:53.148Z,3.33
2022-11-23T05:44:41.779Z,3.42
2022-11-23T05:47:14.782Z,3.40
2022-11-23T05:49:41.705Z,4.10
2022-11-23T05:52:08.618Z,5.78
2022-11-23T05:54:37.320Z,2.95
2022-11-23T05:57:15.801Z,6.18
2022-11-23T05:59:45.172Z,3.28
2022-11-23T06:02:17.494Z,3.42
2022-11-23T06:04:44.646Z,5.25
2022-11-23T06:07:16.057Z,4.45
2022-11-23T06:09:57.911Z,4.00
2022-11-23T06:12:25.881Z,4.25
2022-11-23T06:14:52.693Z,3.65
2022-11-23T06:17:22.565Z,4.75
2022-11-23T06:19:50.921Z,5.28
2022-11-23T06:22:17.746Z,4.75
2022-11-23T06:24:53.480Z,5.40
2022-11-23T06:27:40.421Z,5.55
2022-11-23T06:30:16.034Z,4.78
2022-11-23T06:32:43.313Z,4.43
2022-11-23T06:35:10.567Z,6.47
2022-11-23T06:37:40.320Z,3.63
2022-11-23T06:40:07.759Z,4.80
2022-11-23T06:42:39.335Z,5.47
2022-11-23T06:45:13.434Z,4.72
2022-11-23T06:47:40.347Z,5.00
2022-11-23T06:52:34.497Z,5.93
2022-11-23T06:55:01.331Z,5.10
2022-11-23T06:57:28.780Z,6.70
2022-11-23T06:59:56.464Z,4.35
2022-11-23T07:02:30.764Z,4.88
2022-11-23T07:04:58.575Z,4.53
2022-11-23T07:07:27.578Z,5.00
2022-11-23T07:10:07.410Z,5.00
2022-11-23T07:12:46.671Z,5.20
2022-11-23T07:15:15.970Z,5.30
2022-11-23T07:17:44.666Z,5.10
2022-11-23T07:20:13.449Z,5.88
2022-11-23T07:22:40.529Z,4.93
2022-11-23T07:25:08.253Z,5.15
2022-11-23T07:30:02.878Z,4.22
2022-11-23T07:34:57.401Z,3.57
2022-11-23T07:37:25.431Z,4.00
2022-11-23T07:39:57.752Z,3.70
2022-11-23T07:42:39.871Z,6.47
2022-11-23T07:45:12.488Z,3.17
2022-11-23T07:47:44.271Z,1.67
2022-11-23T07:52:39.417Z,2.20
2022-11-23T07:55:06.637Z,2.58
2022-11-23T07:59:59.867Z,3.72
2022-11-23T08:02:26.652Z,3.45
2022-11-23T08:04:53.434Z,4.07
2022-11-23T08:07:20.182Z,4.10
2022-11-23T08:09:47.001Z,12.18
2022-11-23T08:12:13.691Z,6.05
2022-11-23T08:14:40.457Z,5.53
2022-11-23T08:17:07.460Z,5.75
2022-11-23T08:19:36.843Z,5.45
2022-11-23T08:22:04.004Z,4.90
2022-11-23T08:24:30.999Z,2.50
2022-11-23T08:27:00.280Z,3.45
2022-11-23T08:29:27.315Z,3.72
2022-11-23T08:31:54.020Z,2.80
2022-11-23T08:34:20.754Z,2.97
2022-11-23T08:36:48.325Z,3.35
2022-11-23T08:39:15.274Z,2.13
2022-11-23T08:41:42.490Z,3.40
2022-11-23T08:49:05.617Z,1.75
2022-11-23T08:51:32.507Z,1.95
2022-11-23T08:53:59.309Z,2.35
2022-11-23T08:56:26.082Z,1.95
2022-11-23T08:58:52.797Z,2.15
2022-11-23T09:01:19.743Z,3.50
2022-11-23T09:03:46.576Z,2.88
2022-11-23T09:06:13.268Z,3.05
2022-11-23T09:08:40.044Z,3.88
2022-11-23T09:11:09.941Z,3.72
2022-11-23T09:13:37.447Z,2.63
2022-11-23T09:16:05.768Z,2.20
2022-11-23T09:18:33.433Z,3.20
2022-11-23T09:21:04.017Z,3.20
2022-11-23T09:23:31.748Z,3.20
2022-11-23T09:26:05.139Z,2.88
2022-11-23T09:28:33.902Z,16.85
2022-11-23T09:31:04.579Z,3.40
2022-11-23T09:33:31.425Z,2.95
2022-11-23T09:36:00.156Z,2.50
2022-11-23T09:38:54.552Z,2.45
2022-11-23T09:41:38.325Z,2.33
2022-11-23T09:44:28.251Z,2.15
2022-11-23T09:47:17.529Z,3.15
2022-11-23T09:50:03.429Z,2.85
2022-11-23T09:52:36.416Z,2.35
2022-11-23T09:55:29.353Z,2.72
2022-11-23T09:58:06.683Z,2.45
2022-11-23T10:00:59.451Z,1.95
2022-11-23T10:03:27.856Z,2.83
2022-11-23T10:06:07.799Z,4.43
2022-11-23T10:08:59.400Z,1.80
2022-11-23T10:11:54.372Z,2.15
2022-11-23T10:14:48.449Z,1.27
2022-11-23T10:17:27.092Z,1.38
2022-11-23T10:20:02.961Z,2.08
2022-11-23T10:22:49.029Z,1.38
2022-11-23T10:25:19.222Z,1.90
2022-11-23T10:27:52.167Z,1.30
2022-11-23T10:30:20.654Z,1.38
2022-11-23T10:32:55.514Z,2.58
2022-11-23T10:35:32.984Z,2.75
2022-11-23T10:38:18.657Z,2.95
2022-11-23T10:41:08.483Z,2.60
2022-11-23T10:43:55.392Z,4.88
2022-11-23T10:46:26.789Z,2.05
2022-11-23T10:48:54.325Z,3.10
2022-11-23T10:51:30.700Z,2.30
2022-11-23T10:54:05.170Z,2.55
2022-11-23T10:56:34.122Z,2.17
2022-11-23T10:59:00.922Z,2.50
2022-11-23T11:01:29.757Z,2.33
2022-11-23T11:04:03.405Z,1.92
2022-11-23T11:06:36.137Z,2.65
2022-11-23T11:09:17.756Z,2.47
2022-11-23T11:11:52.260Z,2.60
2022-11-23T11:14:23.532Z,2.53
2022-11-23T11:16:55.732Z,3.42
2022-11-23T11:19:32.445Z,2.45
2022-11-23T11:22:01.235Z,2.83
2022-11-23T11:24:36.227Z,2.53
2022-11-23T11:27:13.378Z,2.38
2022-11-23T11:29:48.267Z,2.10
2022-11-23T11:32:37.066Z,2.47
2022-11-23T11:35:20.462Z,1.92
2022-11-23T11:37:51.408Z,1.92
2022-11-23T11:40:33.060Z,1.73
2022-11-23T11:43:37.582Z,2.38
2022-11-23T11:46:28.965Z,2.75
2022-11-23T11:49:07.650Z,2.30
2022-11-23T11:51:40.402Z,2.70
2022-11-23T11:54:28.338Z,2.45
2022-11-23T11:57:06.376Z,2.65
2022-11-23T11:59:45.647Z,3.45
2022-11-23T12:02:29.929Z,2.70
2022-11-23T12:05:04.206Z,2.70
2022-11-23T12:07:35.842Z,3.20
2022-11-23T12:10:12.839Z,2.78
2022-11-23T12:12:39.882Z,3.25
2022-11-23T12:15:33.268Z,3.08
2022-11-23T12:18:28.941Z,3.25
2022-11-23T12:20:58.733Z,3.10
2022-11-23T12:23:37.469Z,2.75
2022-11-23T12:26:22.749Z,3.33
2022-11-23T12:29:40.041Z,3.00
2022-11-23T12:32:24.725Z,2.85
2022-11-23T12:34:59.872Z,2.95
2022-11-23T12:37:42.832Z,2.50
2022-11-23T12:40:30.929Z,2.72
2022-11-23T12:43:33.543Z,2.65
2022-11-23T12:46:02.921Z,2.72
2022-11-23T12:49:12.340Z,3.00
2022-11-23T12:52:07.593Z,2.67
2022-11-23T12:55:05.343Z,2.90
2022-11-23T12:57:49.121Z,2.40
2022-11-23T13:00:21.490Z,2.25
2022-11-23T13:02:57.199Z,3.42
2022-11-23T13:05:45.623Z,2.70
2022-11-23T13:11:09.368Z,2.20
2022-11-23T13:13:54.089Z,2.70
2022-11-23T13:17:01.705Z,2.20
2022-11-23T13:19:39.279Z,2.70
2022-11-23T13:22:16.429Z,2.47
2022-11-23T13:25:12.601Z,2.58
2022-11-23T13:27:54.546Z,1.90
2022-11-23T13:30:35.593Z,2.22
2022-11-23T13:33:23.645Z,2.53
2022-11-23T13:35:57.498Z,2.40
2022-11-23T13:38:26.551Z,3.75
2022-11-23T13:40:54.001Z,2.40
2022-11-23T13:43:33.653Z,3.45
2022-11-23T13:46:24.928Z,4.38
2022-11-23T13:48:57.795Z,3.15
2022-11-23T13:51:33.556Z,2.92
2022-11-23T13:54:21.313Z,3.33
2022-11-23T13:57:00.900Z,3.70
2022-11-23T13:59:31.724Z,4.00
2022-11-23T14:02:03.210Z,3.42
2022-11-23T14:04:32.293Z,3.85
2022-11-23T14:07:06.773Z,3.55
2022-11-23T14:09:39.814Z,3.25
2022-11-23T14:12:12.537Z,3.20
2022-11-23T14:14:45.237Z,3.17
2022-11-23T14:17:40.252Z,3.10
2022-11-23T14:20:35.561Z,3.13
2022-11-23T14:23:32.818Z,3.25
2022-11-23T14:26:17.820Z,2.83
2022-11-23T14:28:56.848Z,2.95
2022-11-23T14:31:43.561Z,3.05
2022-11-23T14:34:38.185Z,3.25
2022-11-23T14:37:32.136Z,2.63
2022-11-23T14:40:01.890Z,2.95
2022-11-23T14:42:30.381Z,3.40
2022-11-23T14:45:04.868Z,2.75
2022-11-23T14:47:32.775Z,2.70
2022-11-23T14:49:59.530Z,3.47
2022-11-23T14:52:29.619Z,3.35
2022-11-23T14:55:01.417Z,3.17
2022-11-23T14:57:41.433Z,3.30
2022-11-23T15:00:26.287Z,3.10
2022-11-23T15:02:55.204Z,3.05
2022-11-23T15:05:26.888Z,3.63
2022-11-23T15:08:00.240Z,3.55
2022-11-23T15:10:48.720Z,4.88
2022-11-23T15:15:49.832Z,3.15
2022-11-23T15:18:29.441Z,3.47
2022-11-23T15:20:59.453Z,4.65
2022-11-23T15:23:34.873Z,3.65
2022-11-23T15:26:05.834Z,3.55
2022-11-23T15:28:38.497Z,3.58
2022-11-23T15:31:18.857Z,3.20
2022-11-23T15:33:50.457Z,3.50
2022-11-23T15:36:24.959Z,3.40
2022-11-23T15:38:53.425Z,3.63
2022-11-23T15:41:20.547Z,3.85
2022-11-23T15:44:00.007Z,3.92
2022-11-23T15:46:36.832Z,3.42
2022-11-23T15:49:06.210Z,7.25
2022-11-23T15:51:42.273Z,5.55
2022-11-23T15:54:25.582Z,9.15
2022-11-23T15:56:55.376Z,9.07
2022-11-23T15:59:45.563Z,7.70
2022-11-23T16:02:17.944Z,9.23
2022-11-23T16:04:45.807Z,30.15
2022-11-23T16:07:22.908Z,9.00
2022-11-23T16:09:53.263Z,8.70
2022-11-23T16:12:27.669Z,8.40
2022-11-23T16:14:59.575Z,8.38
2022-11-23T16:17:28.653Z,8.77
2022-11-23T16:19:58.060Z,7.90
2022-11-23T16:22:27.972Z,9.25
2022-11-23T16:25:06.781Z,8.10
2022-11-23T16:27:34.060Z,9.50
2022-11-23T16:32:31.950Z,9.57
2022-11-23T16:35:15.746Z,7.32
2022-11-23T16:37:42.687Z,35.28
2022-11-23T16:40:10.181Z,77.28
2022-11-23T16:42:37.280Z,14.88
2022-11-23T16:45:06.529Z,12.73
2022-11-23T16:47:34.425Z,11.80
2022-11-23T16:50:02.010Z,13.25
2022-11-23T16:52:29.935Z,13.48
2022-11-23T16:54:59.161Z,18.85
2022-11-23T16:57:31.791Z,16.15
2022-11-23T17:00:01.823Z,24.15
2022-11-23T17:02:29.537Z,7.60
2022-11-23T17:04:56.496Z,7.65
2022-11-23T17:07:25.192Z,7.63
2022-11-23T17:09:52.457Z,7.60
2022-11-23T17:14:50.395Z,7.03
2022-11-23T17:17:22.408Z,7.95
2022-11-23T17:19:50.197Z,11.75
2022-11-23T17:22:18.673Z,7.97
2022-11-23T17:24:46.879Z,7.15
2022-11-23T17:27:16.972Z,13.77
2022-11-23T17:29:45.072Z,11.07
2022-11-23T17:32:14.024Z,7.90
2022-11-23T17:34:41.341Z,6.78
2022-11-23T17:39:41.666Z,6.18
2022-11-23T17:42:11.558Z,6.05
2022-11-23T17:44:39.512Z,6.07
2022-11-23T17:47:14.114Z,6.75
2022-11-23T17:49:40.855Z,7.88
2022-11-23T17:52:11.437Z,6.85
2022-11-23T17:54:38.125Z,7.35
2022-11-23T17:57:04.830Z,6.32
2022-11-23T17:59:31.953Z,7.18
2022-11-23T18:01:59.094Z,7.50
2022-11-23T18:04:25.832Z,7.15
2022-11-23T18:06:52.552Z,7.15
2022-11-23T18:09:19.279Z,8.52
2022-11-23T18:11:45.977Z,7.05
2022-11-23T18:14:12.649Z,8.10
2022-11-23T18:16:39.537Z,6.88
2022-11-23T18:19:06.205Z,7.50
2022-11-23T18:21:32.938Z,7.47
2022-11-23T18:24:04.262Z,6.65
2022-11-23T18:26:31.834Z,7.43
2022-11-23T18:28:58.593Z,8.68
2022-11-23T18:31:25.383Z,9.95
2022-11-23T18:33:52.129Z,10.57
2022-11-23T18:36:19.082Z,8.40
2022-11-23T18:38:46.661Z,8.30
2022-11-23T18:41:16.286Z,8.52
2022-11-23T18:43:44.029Z,8.10
2022-11-23T18:46:12.308Z,13.15
2022-11-23T18:48:39.155Z,7.95
2022-11-23T18:51:06.265Z,9.30
2022-11-23T18:53:34.149Z,8.48
2022-11-23T18:56:05.804Z,8.60
2022-11-23T18:58:34.808Z,7.95
2022-11-23T19:01:15.916Z,25.30
2022-11-23T19:03:46.126Z,17.10
2022-11-23T19:06:18.421Z,13.05
2022-11-23T19:08:51.592Z,9.43
2022-11-23T19:11:27.423Z,12.65
2022-11-23T19:13:56.903Z,9.15
2022-11-23T19:16:31.451Z,9.07
2022-11-23T19:19:04.236Z,9.93
2022-11-23T19:21:32.788Z,8.85
2022-11-23T19:24:00.691Z,8.40
2022-11-23T19:26:28.808Z,8.57
2022-11-23T19:28:56.158Z,9.80
2022-11-23T19:33:52.565Z,9.70
2022-11-23T19:36:21.728Z,12.13
2022-11-23T19:38:49.738Z,10.70
2022-11-23T19:41:17.096Z,9.57
2022-11-23T19:46:14.791Z,11.35
2022-11-23T19:48:42.168Z,16.27
2022-11-23T19:51:14.387Z,11.65
2022-11-23T19:53:42.444Z,9.93
2022-11-23T19:56:20.079Z,11.68
2022-11-23T19:58:56.204Z,9.75
2022-11-23T20:01:25.392Z,9.82
2022-11-23T20:04:07.890Z,9.85
2022-11-23T20:06:37.329Z,9.95
2022-11-23T20:09:09.132Z,13.88
2022-11-23T20:11:38.231Z,13.05
2022-11-23T20:14:05.399Z,12.18
2022-11-23T20:16:35.656Z,13.02
2022-11-23T20:19:06.362Z,22.20
2022-11-23T20:21:35.007Z,11.80
2022-11-23T20:24:05.716Z,11.48
2022-11-23T20:26:36.619Z,108.30
2022-11-23T20:29:05.785Z,26.45
2022-11-23T20:31:33.277Z,20.58
2022-11-23T20:34:02.583Z,16.77
2022-11-23T20:36:37.650Z,21.92
2022-11-23T20:39:08.046Z,53.35
2022-11-23T20:41:36.438Z,55.53
2022-11-23T20:44:04.514Z,37.42
2022-11-23T20:49:20.812Z,30.52
2022-11-23T20:51:47.585Z,22.40
2022-11-23T20:54:15.560Z,22.15
2022-11-23T20:56:42.943Z,14.40
2022-11-23T20:59:12.062Z,18.15
2022-11-23T21:01:40.712Z,19.00
2022-11-23T21:04:09.801Z,20.40
2022-11-23T21:06:39.442Z,26.67
2022-11-23T21:09:07.899Z,11.32
2022-11-23T21:12:00.694Z,9.25
2022-11-23T21:14:28.257Z,8.85
2022-11-23T21:16:59.472Z,7.93
2022-11-23T21:19:28.675Z,6.63
2022-11-23T21:21:56.905Z,7.43
2022-11-23T21:24:23.880Z,6.28
2022-11-23T21:26:50.840Z,8.93
2022-11-23T21:29:18.440Z,9.50
2022-11-23T21:31:46.884Z,7.93
2022-11-23T21:34:22.156Z,8.15
2022-11-23T21:36:49.701Z,8.50
2022-11-23T21:39:17.220Z,10.57
2022-11-23T21:41:44.680Z,9.50
2022-11-23T21:44:12.989Z,9.75
2022-11-23T21:46:41.097Z,9.77
2022-11-23T21:49:10.790Z,11.23
2022-11-23T21:51:38.493Z,9.50
2022-11-23T21:54:07.935Z,7.47
2022-11-23T21:56:34.683Z,14.07
2022-11-23T21:59:02.497Z,10.23
2022-11-23T22:01:34.785Z,9.00
2022-11-23T22:04:15.602Z,9.82
2022-11-23T22:06:44.552Z,9.82
2022-11-23T22:09:12.177Z,10.82
2022-11-23T22:11:41.303Z,9.52
2022-11-23T22:14:16.618Z,9.75
2022-11-23T22:16:46.142Z,8.77
2022-11-23T22:19:14.869Z,10.23
2022-11-23T22:21:43.737Z,8.80
2022-11-23T22:24:15.310Z,11.20
2022-11-23T22:26:43.060Z,10.13
2022-11-23T22:29:17.872Z,11.88
2022-11-23T22:31:44.913Z,11.77
2022-11-23T22:36:41.303Z,10.77
2022-11-23T22:39:08.588Z,12.10
2022-11-23T22:44:06.321Z,11.00
2022-11-23T22:46:33.539Z,13.05
2022-11-23T22:53:59.967Z,10.02
2022-11-23T22:56:28.788Z,9.55
2022-11-23T22:58:56.960Z,11.68
2022-11-23T23:01:26.639Z,9.48
2022-11-23T23:03:58.496Z,8.57
2022-11-23T23:06:28.458Z,10.52
2022-11-23T23:08:57.576Z,10.90
2022-11-23T23:11:26.285Z,10.07
2022-11-23T23:13:53.723Z,9.40
2022-11-23T23:16:20.833Z,10.85
2022-11-23T23:18:47.725Z,13.02
2022-11-23T23:21:20.967Z,17.90
2022-11-23T23:23:52.903Z,10.75
2022-11-23T23:26:22.983Z,9.85
2022-11-23T23:28:53.148Z,17.25
2022-11-23T23:31:19.934Z,26.60
2022-11-23T23:33:46.943Z,23.48
2022-11-23T23:36:19.839Z,25.50
2022-11-23T23:38:47.494Z,29.77
2022-11-23T23:41:15.758Z,21.98
2022-11-23T23:46:12.224Z,37.35
2022-11-23T23:48:39.992Z,37.42
2022-11-23T23:51:11.241Z,36.13
2022-11-23T23:53:38.896Z,23.15
2022-11-23T23:56:08.605Z,39.40
2022-11-23T23:58:35.514Z,27.08
